sensor_id;sensor_type;location;lat;lon;timestamp;P1;durP1;ratioP1;P2;durP2;ratioP2
7495;SDS011;3789;47.064;15.482;2022-09-12T00:01:54;1.37;;;1.23;;
7495;SDS011;3789;47.064;15.482;2022-09-12T00:04:31;2.27;;;1.20;;
7495;SDS011;3789;47.064;15.482;2022-09-12T00:07:03;1.87;;;1.40;;
7495;SDS011;3789;47.064;15.482;2022-09-12T00:09:30;1.57;;;1.40;;
7495;SDS011;3789;47.064;15.482;2022-09-12T00:12:01;2.77;;;1.70;;
7495;SDS011;3789;47.064;15.482;2022-09-12T00:14:32;3.07;;;1.23;;
7495;SDS011;3789;47.064;15.482;2022-09-12T00:17:14;2.20;;;1.70;;
7495;SDS011;3789;47.064;15.482;2022-09-12T00:19:44;2.70;;;1.40;;
7495;SDS011;3789;47.064;15.482;2022-09-12T00:22:13;1.50;;;1.40;;
7495;SDS011;3789;47.064;15.482;2022-09-12T00:24:44;3.40;;;1.73;;
7495;SDS011;3789;47.064;15.482;2022-09-12T00:27:11;1.37;;;1.27;;
7495;SDS011;3789;47.064;15.482;2022-09-12T00:29:46;1.50;;;1.40;;
7495;SDS011;3789;47.064;15.482;2022-09-12T00:32:17;1.80;;;1.30;;
7495;SDS011;3789;47.064;15.482;2022-09-12T00:34:47;1.43;;;1.33;;
7495;SDS011;3789;47.064;15.482;2022-09-12T00:37:18;1.40;;;1.23;;
7495;SDS011;3789;47.064;15.482;2022-09-12T00:39:46;1.37;;;1.20;;
7495;SDS011;3789;47.064;15.482;2022-09-12T00:42:14;1.30;;;1.20;;
7495;SDS011;3789;47.064;15.482;2022-09-12T00:44:51;1.90;;;1.30;;
7495;SDS011;3789;47.064;15.482;2022-09-12T00:47:27;3.20;;;1.27;;
7495;SDS011;3789;47.064;15.482;2022-09-12T00:50:06;1.43;;;1.30;;
7495;SDS011;3789;47.064;15.482;2022-09-12T00:55:37;1.30;;;1.20;;
7495;SDS011;3789;47.064;15.482;2022-09-12T00:58:16;1.40;;;1.30;;
7495;SDS011;3789;47.064;15.482;2022-09-12T01:01:11;1.20;;;1.10;;
7495;SDS011;3789;47.064;15.482;2022-09-12T01:03:39;1.80;;;1.40;;
7495;SDS011;3789;47.064;15.482;2022-09-12T01:06:25;1.50;;;1.40;;
7495;SDS011;3789;47.064;15.482;2022-09-12T01:09:11;1.43;;;1.33;;
7495;SDS011;3789;47.064;15.482;2022-09-12T01:11:52;1.97;;;1.40;;
7495;SDS011;3789;47.064;15.482;2022-09-12T01:14:23;2.17;;;1.10;;
7495;SDS011;3789;47.064;15.482;2022-09-12T01:16:52;1.40;;;1.30;;
7495;SDS011;3789;47.064;15.482;2022-09-12T01:29:42;1.77;;;1.20;;
7495;SDS011;3789;47.064;15.482;2022-09-12T01:32:14;1.80;;;1.33;;
7495;SDS011;3789;47.064;15.482;2022-09-12T01:40:44;1.20;;;1.07;;
7495;SDS011;3789;47.064;15.482;2022-09-12T01:46:22;2.07;;;1.50;;
7495;SDS011;3789;47.064;15.482;2022-09-12T01:49:01;2.50;;;1.10;;
7495;SDS011;3789;47.064;15.482;2022-09-12T01:51:35;2.10;;;1.30;;
7495;SDS011;3789;47.064;15.482;2022-09-12T01:54:12;1.30;;;1.20;;
7495;SDS011;3789;47.064;15.482;2022-09-12T01:56:47;1.40;;;1.30;;
7495;SDS011;3789;47.064;15.482;2022-09-12T01:59:23;1.27;;;1.13;;
7495;SDS011;3789;47.064;15.482;2022-09-12T02:02:06;1.37;;;1.27;;
7495;SDS011;3789;47.064;15.482;2022-09-12T02:05:10;1.50;;;1.40;;
7495;SDS011;3789;47.064;15.482;2022-09-12T02:07:50;1.30;;;1.20;;
7495;SDS011;3789;47.064;15.482;2022-09-12T02:10:29;1.37;;;1.27;;
7495;SDS011;3789;47.064;15.482;2022-09-12T02:13:05;1.47;;;1.10;;
7495;SDS011;3789;47.064;15.482;2022-09-12T02:16:20;1.43;;;1.33;;
7495;SDS011;3789;47.064;15.482;2022-09-12T02:18:56;1.30;;;1.20;;
7495;SDS011;3789;47.064;15.482;2022-09-12T02:21:34;2.60;;;1.60;;
7495;SDS011;3789;47.064;15.482;2022-09-12T02:24:04;1.70;;;1.00;;
7495;SDS011;3789;47.064;15.482;2022-09-12T02:26:36;1.40;;;1.30;;
7495;SDS011;3789;47.064;15.482;2022-09-12T02:29:25;2.23;;;1.30;;
7495;SDS011;3789;47.064;15.482;2022-09-12T02:31:59;1.90;;;1.40;;
7495;SDS011;3789;47.064;15.482;2022-09-12T02:40:11;1.50;;;1.37;;
7495;SDS011;3789;47.064;15.482;2022-09-12T02:42:39;1.40;;;1.30;;
7495;SDS011;3789;47.064;15.482;2022-09-12T02:45:06;1.30;;;1.20;;
7495;SDS011;3789;47.064;15.482;2022-09-12T02:47:36;1.67;;;1.23;;
7495;SDS011;3789;47.064;15.482;2022-09-12T02:50:09;1.40;;;1.30;;
7495;SDS011;3789;47.064;15.482;2022-09-12T02:52:37;2.10;;;1.70;;
7495;SDS011;3789;47.064;15.482;2022-09-12T02:55:05;1.40;;;1.30;;
7495;SDS011;3789;47.064;15.482;2022-09-12T02:57:33;2.90;;;1.30;;
7495;SDS011;3789;47.064;15.482;2022-09-12T03:00:01;2.23;;;1.40;;
7495;SDS011;3789;47.064;15.482;2022-09-12T03:02:50;1.43;;;1.30;;
7495;SDS011;3789;47.064;15.482;2022-09-12T03:05:46;1.23;;;1.13;;
7495;SDS011;3789;47.064;15.482;2022-09-12T03:08:44;1.47;;;1.30;;
7495;SDS011;3789;47.064;15.482;2022-09-12T03:19:53;1.30;;;1.20;;
7495;SDS011;3789;47.064;15.482;2022-09-12T03:22:27;1.30;;;1.20;;
7495;SDS011;3789;47.064;15.482;2022-09-12T03:25:23;1.17;;;1.07;;
7495;SDS011;3789;47.064;15.482;2022-09-12T03:28:14;1.57;;;1.33;;
7495;SDS011;3789;47.064;15.482;2022-09-12T03:30:42;1.37;;;1.27;;
7495;SDS011;3789;47.064;15.482;2022-09-12T03:33:14;1.13;;;1.10;;
7495;SDS011;3789;47.064;15.482;2022-09-12T03:35:44;1.63;;;1.30;;
7495;SDS011;3789;47.064;15.482;2022-09-12T03:38:11;2.37;;;1.40;;
7495;SDS011;3789;47.064;15.482;2022-09-12T03:40:39;1.70;;;1.30;;
7495;SDS011;3789;47.064;15.482;2022-09-12T03:43:07;2.07;;;1.30;;
7495;SDS011;3789;47.064;15.482;2022-09-12T03:45:35;1.37;;;1.27;;
7495;SDS011;3789;47.064;15.482;2022-09-12T03:48:04;1.40;;;1.30;;
7495;SDS011;3789;47.064;15.482;2022-09-12T03:50:31;1.30;;;1.20;;
7495;SDS011;3789;47.064;15.482;2022-09-12T03:52:59;2.23;;;1.40;;
7495;SDS011;3789;47.064;15.482;2022-09-12T03:55:27;1.57;;;1.43;;
7495;SDS011;3789;47.064;15.482;2022-09-12T03:57:54;2.67;;;1.43;;
7495;SDS011;3789;47.064;15.482;2022-09-12T04:00:22;1.60;;;1.50;;
7495;SDS011;3789;47.064;15.482;2022-09-12T04:02:53;1.40;;;1.30;;
7495;SDS011;3789;47.064;15.482;2022-09-12T04:05:22;2.43;;;1.30;;
7495;SDS011;3789;47.064;15.482;2022-09-12T04:07:51;1.93;;;1.40;;
7495;SDS011;3789;47.064;15.482;2022-09-12T04:10:18;1.60;;;1.50;;
7495;SDS011;3789;47.064;15.482;2022-09-12T04:12:45;1.57;;;1.33;;
7495;SDS011;3789;47.064;15.482;2022-09-12T04:15:12;2.07;;;1.33;;
7495;SDS011;3789;47.064;15.482;2022-09-12T04:17:39;1.30;;;1.20;;
7495;SDS011;3789;47.064;15.482;2022-09-12T04:20:06;2.10;;;1.53;;
7495;SDS011;3789;47.064;15.482;2022-09-12T04:22:33;1.87;;;1.40;;
7495;SDS011;3789;47.064;15.482;2022-09-12T04:25:01;2.50;;;1.37;;
7495;SDS011;3789;47.064;15.482;2022-09-12T04:27:28;1.20;;;1.10;;
7495;SDS011;3789;47.064;15.482;2022-09-12T04:29:56;1.50;;;1.40;;
7495;SDS011;3789;47.064;15.482;2022-09-12T04:32:25;1.70;;;1.50;;
7495;SDS011;3789;47.064;15.482;2022-09-12T04:34:52;2.23;;;1.30;;
7495;SDS011;3789;47.064;15.482;2022-09-12T04:37:19;1.43;;;1.33;;
7495;SDS011;3789;47.064;15.482;2022-09-12T04:39:47;2.70;;;1.40;;
7495;SDS011;3789;47.064;15.482;2022-09-12T04:42:15;2.20;;;1.47;;
7495;SDS011;3789;47.064;15.482;2022-09-12T04:44:42;1.47;;;1.37;;
7495;SDS011;3789;47.064;15.482;2022-09-12T04:47:09;1.50;;;1.30;;
7495;SDS011;3789;47.064;15.482;2022-09-12T04:49:36;2.70;;;1.50;;
7495;SDS011;3789;47.064;15.482;2022-09-12T04:52:03;1.33;;;1.23;;
7495;SDS011;3789;47.064;15.482;2022-09-12T04:54:30;1.40;;;1.27;;
7495;SDS011;3789;47.064;15.482;2022-09-12T04:56:58;1.23;;;1.13;;
7495;SDS011;3789;47.064;15.482;2022-09-12T04:59:25;1.53;;;1.30;;
7495;SDS011;3789;47.064;15.482;2022-09-12T05:01:53;2.47;;;1.33;;
7495;SDS011;3789;47.064;15.482;2022-09-12T05:04:20;1.40;;;1.30;;
7495;SDS011;3789;47.064;15.482;2022-09-12T05:06:47;1.70;;;1.60;;
7495;SDS011;3789;47.064;15.482;2022-09-12T05:09:15;1.30;;;1.20;;
7495;SDS011;3789;47.064;15.482;2022-09-12T05:11:42;1.48;;;1.38;;
7495;SDS011;3789;47.064;15.482;2022-09-12T05:14:31;1.95;;;1.70;;
7495;SDS011;3789;47.064;15.482;2022-09-12T05:16:59;3.22;;;1.38;;
7495;SDS011;3789;47.064;15.482;2022-09-12T05:19:28;2.28;;;1.40;;
7495;SDS011;3789;47.064;15.482;2022-09-12T05:21:56;2.47;;;1.35;;
7495;SDS011;3789;47.064;15.482;2022-09-12T05:24:24;1.42;;;1.30;;
7495;SDS011;3789;47.064;15.482;2022-09-12T05:26:51;1.40;;;1.15;;
7495;SDS011;3789;47.064;15.482;2022-09-12T05:29:18;1.60;;;1.38;;
7495;SDS011;3789;47.064;15.482;2022-09-12T05:31:45;3.30;;;1.10;;
7495;SDS011;3789;47.064;15.482;2022-09-12T05:34:15;1.60;;;1.50;;
7495;SDS011;3789;47.064;15.482;2022-09-12T05:36:42;1.38;;;1.27;;
7495;SDS011;3789;47.064;15.482;2022-09-12T05:39:09;3.85;;;1.73;;
7495;SDS011;3789;47.064;15.482;2022-09-12T05:41:36;3.03;;;1.45;;
7495;SDS011;3789;47.064;15.482;2022-09-12T05:44:04;1.70;;;1.30;;
7495;SDS011;3789;47.064;15.482;2022-09-12T05:46:37;2.05;;;1.55;;
7495;SDS011;3789;47.064;15.482;2022-09-12T05:49:06;2.33;;;1.40;;
7495;SDS011;3789;47.064;15.482;2022-09-12T05:51:37;2.97;;;1.40;;
7495;SDS011;3789;47.064;15.482;2022-09-12T05:54:07;1.95;;;1.65;;
7495;SDS011;3789;47.064;15.482;2022-09-12T05:56:38;4.45;;;1.60;;
7495;SDS011;3789;47.064;15.482;2022-09-12T05:59:11;1.95;;;1.58;;
7495;SDS011;3789;47.064;15.482;2022-09-12T06:01:40;2.75;;;1.65;;
7495;SDS011;3789;47.064;15.482;2022-09-12T06:04:08;3.97;;;1.73;;
7495;SDS011;3789;47.064;15.482;2022-09-12T06:06:37;4.28;;;2.17;;
7495;SDS011;3789;47.064;15.482;2022-09-12T06:09:07;2.50;;;2.13;;
7495;SDS011;3789;47.064;15.482;2022-09-12T06:11:35;1.30;;;1.20;;
7495;SDS011;3789;47.064;15.482;2022-09-12T06:14:06;1.77;;;1.50;;
7495;SDS011;3789;47.064;15.482;2022-09-12T06:16:35;4.22;;;1.55;;
7495;SDS011;3789;47.064;15.482;2022-09-12T06:19:04;2.50;;;1.50;;
7495;SDS011;3789;47.064;15.482;2022-09-12T06:21:39;4.65;;;2.58;;
7495;SDS011;3789;47.064;15.482;2022-09-12T06:24:06;3.92;;;1.63;;
7495;SDS011;3789;47.064;15.482;2022-09-12T06:26:34;2.67;;;1.60;;
7495;SDS011;3789;47.064;15.482;2022-09-12T06:29:02;2.20;;;1.80;;
7495;SDS011;3789;47.064;15.482;2022-09-12T06:31:31;3.58;;;1.73;;
7495;SDS011;3789;47.064;15.482;2022-09-12T06:34:01;4.78;;;1.77;;
7495;SDS011;3789;47.064;15.482;2022-09-12T06:36:35;2.22;;;1.80;;
7495;SDS011;3789;47.064;15.482;2022-09-12T06:39:12;3.03;;;2.13;;
7495;SDS011;3789;47.064;15.482;2022-09-12T06:41:43;1.95;;;1.73;;
7495;SDS011;3789;47.064;15.482;2022-09-12T06:44:12;2.33;;;1.80;;
7495;SDS011;3789;47.064;15.482;2022-09-12T06:46:41;2.40;;;1.90;;
7495;SDS011;3789;47.064;15.482;2022-09-12T06:49:09;2.17;;;1.77;;
7495;SDS011;3789;47.064;15.482;2022-09-12T06:51:37;2.22;;;1.90;;
7495;SDS011;3789;47.064;15.482;2022-09-12T06:54:04;3.13;;;1.73;;
7495;SDS011;3789;47.064;15.482;2022-09-12T06:56:31;2.70;;;1.75;;
7495;SDS011;3789;47.064;15.482;2022-09-12T06:58:58;2.00;;;1.83;;
7495;SDS011;3789;47.064;15.482;2022-09-12T07:01:26;3.08;;;1.58;;
7495;SDS011;3789;47.064;15.482;2022-09-12T07:03:56;1.77;;;1.67;;
7495;SDS011;3789;47.064;15.482;2022-09-12T07:06:26;2.38;;;1.58;;
7495;SDS011;3789;47.064;15.482;2022-09-12T07:08:58;3.38;;;1.80;;
7495;SDS011;3789;47.064;15.482;2022-09-12T07:11:30;2.00;;;1.80;;
7495;SDS011;3789;47.064;15.482;2022-09-12T07:14:02;1.77;;;1.50;;
7495;SDS011;3789;47.064;15.482;2022-09-12T07:16:31;2.15;;;1.63;;
7495;SDS011;3789;47.064;15.482;2022-09-12T07:19:00;2.80;;;1.88;;
7495;SDS011;3789;47.064;15.482;2022-09-12T07:21:29;1.92;;;1.60;;
7495;SDS011;3789;47.064;15.482;2022-09-12T07:23:56;2.72;;;2.00;;
7495;SDS011;3789;47.064;15.482;2022-09-12T07:26:25;2.10;;;1.90;;
7495;SDS011;3789;47.064;15.482;2022-09-12T07:28:54;3.38;;;1.90;;
7495;SDS011;3789;47.064;15.482;2022-09-12T07:31:42;1.98;;;1.70;;
7495;SDS011;3789;47.064;15.482;2022-09-12T07:34:10;3.67;;;2.00;;
7495;SDS011;3789;47.064;15.482;2022-09-12T07:36:37;3.35;;;1.80;;
7495;SDS011;3789;47.064;15.482;2022-09-12T07:39:05;2.33;;;1.77;;
7495;SDS011;3789;47.064;15.482;2022-09-12T07:41:32;2.30;;;1.75;;
7495;SDS011;3789;47.064;15.482;2022-09-12T07:44:00;4.35;;;1.67;;
7495;SDS011;3789;47.064;15.482;2022-09-12T07:46:29;2.67;;;1.80;;
7495;SDS011;3789;47.064;15.482;2022-09-12T07:48:57;4.20;;;1.77;;
7495;SDS011;3789;47.064;15.482;2022-09-12T07:51:28;1.77;;;1.58;;
7495;SDS011;3789;47.064;15.482;2022-09-12T07:53:56;3.22;;;1.90;;
7495;SDS011;3789;47.064;15.482;2022-09-12T07:56:24;2.42;;;1.75;;
7495;SDS011;3789;47.064;15.482;2022-09-12T07:58:57;2.03;;;1.60;;
7495;SDS011;3789;47.064;15.482;2022-09-12T08:01:24;4.15;;;1.65;;
7495;SDS011;3789;47.064;15.482;2022-09-12T08:03:56;3.35;;;1.58;;
7495;SDS011;3789;47.064;15.482;2022-09-12T08:06:25;2.25;;;1.42;;
7495;SDS011;3789;47.064;15.482;2022-09-12T08:08:54;1.85;;;1.67;;
7495;SDS011;3789;47.064;15.482;2022-09-12T08:11:22;1.77;;;1.52;;
7495;SDS011;3789;47.064;15.482;2022-09-12T08:13:52;2.53;;;1.50;;
7495;SDS011;3789;47.064;15.482;2022-09-12T08:16:22;2.72;;;1.88;;
7495;SDS011;3789;47.064;15.482;2022-09-12T08:18:51;3.80;;;1.70;;
7495;SDS011;3789;47.064;15.482;2022-09-12T08:21:23;2.78;;;1.83;;
7495;SDS011;3789;47.064;15.482;2022-09-12T08:23:53;2.95;;;1.60;;
7495;SDS011;3789;47.064;15.482;2022-09-12T08:26:23;2.42;;;1.70;;
7495;SDS011;3789;47.064;15.482;2022-09-12T08:28:50;3.13;;;1.92;;
7495;SDS011;3789;47.064;15.482;2022-09-12T08:31:19;1.70;;;1.60;;
7495;SDS011;3789;47.064;15.482;2022-09-12T08:33:48;2.17;;;1.98;;
7495;SDS011;3789;47.064;15.482;2022-09-12T08:36:16;3.33;;;1.70;;
7495;SDS011;3789;47.064;15.482;2022-09-12T08:38:46;3.92;;;1.80;;
7495;SDS011;3789;47.064;15.482;2022-09-12T08:41:29;3.33;;;1.70;;
7495;SDS011;3789;47.064;15.482;2022-09-12T08:49:53;2.45;;;1.80;;
7495;SDS011;3789;47.064;15.482;2022-09-12T08:55:04;1.60;;;1.50;;
7495;SDS011;3789;47.064;15.482;2022-09-12T08:57:38;2.70;;;1.60;;
7495;SDS011;3789;47.064;15.482;2022-09-12T09:00:10;2.53;;;1.40;;
7495;SDS011;3789;47.064;15.482;2022-09-12T09:05:36;1.95;;;1.35;;
7495;SDS011;3789;47.064;15.482;2022-09-12T09:16:41;1.40;;;1.30;;
7495;SDS011;3789;47.064;15.482;2022-09-12T09:19:11;1.60;;;1.50;;
7495;SDS011;3789;47.064;15.482;2022-09-12T09:21:48;1.77;;;1.58;;
7495;SDS011;3789;47.064;15.482;2022-09-12T09:24:19;1.60;;;1.40;;
7495;SDS011;3789;47.064;15.482;2022-09-12T09:29:35;2.63;;;1.27;;
7495;SDS011;3789;47.064;15.482;2022-09-12T09:32:14;1.80;;;1.70;;
7495;SDS011;3789;47.064;15.482;2022-09-12T09:34:54;2.60;;;1.50;;
7495;SDS011;3789;47.064;15.482;2022-09-12T09:42:39;1.50;;;1.40;;
7495;SDS011;3789;47.064;15.482;2022-09-12T09:45:28;1.50;;;1.40;;
7495;SDS011;3789;47.064;15.482;2022-09-12T09:48:00;1.70;;;1.33;;
7495;SDS011;3789;47.064;15.482;2022-09-12T09:50:41;1.48;;;1.38;;
7495;SDS011;3789;47.064;15.482;2022-09-12T09:53:11;1.40;;;1.30;;
7495;SDS011;3789;47.064;15.482;2022-09-12T09:55:55;1.83;;;1.40;;
7495;SDS011;3789;47.064;15.482;2022-09-12T09:58:27;1.65;;;1.55;;
7495;SDS011;3789;47.064;15.482;2022-09-12T10:00:57;1.58;;;1.48;;
7495;SDS011;3789;47.064;15.482;2022-09-12T10:04:13;2.83;;;1.70;;
7495;SDS011;3789;47.064;15.482;2022-09-12T10:06:21;1.70;;;1.60;;
7495;SDS011;3789;47.064;15.482;2022-09-12T10:09:03;1.83;;;1.58;;
7495;SDS011;3789;47.064;15.482;2022-09-12T10:11:34;3.33;;;1.80;;
7495;SDS011;3789;47.064;15.482;2022-09-12T10:16:56;1.95;;;1.77;;
7495;SDS011;3789;47.064;15.482;2022-09-12T10:19:38;1.50;;;1.40;;
7495;SDS011;3789;47.064;15.482;2022-09-12T10:22:05;2.00;;;1.73;;
7495;SDS011;3789;47.064;15.482;2022-09-12T10:24:40;3.85;;;1.60;;
7495;SDS011;3789;47.064;15.482;2022-09-12T10:29:48;2.80;;;1.80;;
7495;SDS011;3789;47.064;15.482;2022-09-12T10:32:21;1.90;;;1.80;;
7495;SDS011;3789;47.064;15.482;2022-09-12T10:34:59;1.92;;;1.60;;
7495;SDS011;3789;47.064;15.482;2022-09-12T10:37:35;4.53;;;1.65;;
7495;SDS011;3789;47.064;15.482;2022-09-12T10:40:05;1.88;;;1.70;;
7495;SDS011;3789;47.064;15.482;2022-09-12T10:42:48;1.60;;;1.50;;
7495;SDS011;3789;47.064;15.482;2022-09-12T10:45:29;2.85;;;1.60;;
7495;SDS011;3789;47.064;15.482;2022-09-12T10:51:00;1.63;;;1.50;;
7495;SDS011;3789;47.064;15.482;2022-09-12T10:53:28;2.70;;;1.90;;
7495;SDS011;3789;47.064;15.482;2022-09-12T10:56:19;2.00;;;1.80;;
7495;SDS011;3789;47.064;15.482;2022-09-12T10:59:07;1.70;;;1.60;;
7495;SDS011;3789;47.064;15.482;2022-09-12T11:01:44;2.80;;;1.50;;
7495;SDS011;3789;47.064;15.482;2022-09-12T11:10:14;1.80;;;1.70;;
7495;SDS011;3789;47.064;15.482;2022-09-12T11:29:58;2.53;;;1.75;;
7495;SDS011;3789;47.064;15.482;2022-09-12T11:35:31;3.08;;;1.80;;
7495;SDS011;3789;47.064;15.482;2022-09-12T11:40:37;2.88;;;1.88;;
7495;SDS011;3789;47.064;15.482;2022-09-12T11:57:01;2.08;;;1.58;;
7495;SDS011;3789;47.064;15.482;2022-09-12T11:59:46;2.20;;;1.52;;
7495;SDS011;3789;47.064;15.482;2022-09-12T12:02:26;1.67;;;1.52;;
7495;SDS011;3789;47.064;15.482;2022-09-12T12:05:17;1.70;;;1.60;;
7495;SDS011;3789;47.064;15.482;2022-09-12T12:07:56;1.58;;;1.48;;
7495;SDS011;3789;47.064;15.482;2022-09-12T12:12:59;2.22;;;1.60;;
7495;SDS011;3789;47.064;15.482;2022-09-12T12:15:39;2.38;;;1.80;;
7495;SDS011;3789;47.064;15.482;2022-09-12T12:18:21;1.90;;;1.70;;
7495;SDS011;3789;47.064;15.482;2022-09-12T12:20:50;2.85;;;1.65;;
7495;SDS011;3789;47.064;15.482;2022-09-12T12:23:27;1.90;;;1.70;;
7495;SDS011;3789;47.064;15.482;2022-09-12T12:25:57;2.55;;;1.48;;
7495;SDS011;3789;47.064;15.482;2022-09-12T12:31:09;1.65;;;1.55;;
7495;SDS011;3789;47.064;15.482;2022-09-12T12:36:04;1.92;;;1.73;;
7495;SDS011;3789;47.064;15.482;2022-09-12T12:38:34;1.70;;;1.60;;
7495;SDS011;3789;47.064;15.482;2022-09-12T12:41:46;1.85;;;1.50;;
7495;SDS011;3789;47.064;15.482;2022-09-12T12:43:54;2.38;;;1.58;;
7495;SDS011;3789;47.064;15.482;2022-09-12T12:46:23;1.75;;;1.65;;
7495;SDS011;3789;47.064;15.482;2022-09-12T12:49:35;1.70;;;1.58;;
7495;SDS011;3789;47.064;15.482;2022-09-12T12:57:01;1.80;;;1.70;;
7495;SDS011;3789;47.064;15.482;2022-09-12T13:02:23;2.00;;;1.67;;
7495;SDS011;3789;47.064;15.482;2022-09-12T13:04:54;2.95;;;1.50;;
7495;SDS011;3789;47.064;15.482;2022-09-12T13:07:26;1.88;;;1.73;;
7495;SDS011;3789;47.064;15.482;2022-09-12T13:09:57;1.67;;;1.58;;
7495;SDS011;3789;47.064;15.482;2022-09-12T13:12:27;1.67;;;1.52;;
7495;SDS011;3789;47.064;15.482;2022-09-12T13:14:59;1.73;;;1.60;;
7495;SDS011;3789;47.064;15.482;2022-09-12T13:17:36;3.00;;;1.50;;
7495;SDS011;3789;47.064;15.482;2022-09-12T13:22:55;2.00;;;1.80;;
7495;SDS011;3789;47.064;15.482;2022-09-12T13:25:35;2.33;;;1.40;;
7495;SDS011;3789;47.064;15.482;2022-09-12T13:30:30;2.38;;;1.50;;
7495;SDS011;3789;47.064;15.482;2022-09-12T13:33:07;2.22;;;1.60;;
7495;SDS011;3789;47.064;15.482;2022-09-12T13:38:29;2.08;;;1.50;;
7495;SDS011;3789;47.064;15.482;2022-09-12T13:41:25;1.60;;;1.50;;
7495;SDS011;3789;47.064;15.482;2022-09-12T13:44:16;1.52;;;1.42;;
7495;SDS011;3789;47.064;15.482;2022-09-12T13:46:47;2.50;;;1.42;;
7495;SDS011;3789;47.064;15.482;2022-09-12T13:49:25;1.58;;;1.48;;
7495;SDS011;3789;47.064;15.482;2022-09-12T13:52:08;1.58;;;1.48;;
7495;SDS011;3789;47.064;15.482;2022-09-12T13:54:49;2.22;;;1.70;;
7495;SDS011;3789;47.064;15.482;2022-09-12T13:57:29;3.55;;;1.52;;
7495;SDS011;3789;47.064;15.482;2022-09-12T14:00:04;1.65;;;1.55;;
7495;SDS011;3789;47.064;15.482;2022-09-12T14:02:45;1.70;;;1.60;;
7495;SDS011;3789;47.064;15.482;2022-09-12T14:05:20;2.20;;;1.83;;
7495;SDS011;3789;47.064;15.482;2022-09-12T14:10:29;2.05;;;1.60;;
7495;SDS011;3789;47.064;15.482;2022-09-12T14:13:02;1.60;;;1.42;;
7495;SDS011;3789;47.064;15.482;2022-09-12T14:15:37;1.40;;;1.30;;
7495;SDS011;3789;47.064;15.482;2022-09-12T14:18:05;1.90;;;1.65;;
7495;SDS011;3789;47.064;15.482;2022-09-12T14:20:34;2.63;;;1.75;;
7495;SDS011;3789;47.064;15.482;2022-09-12T14:25:55;3.05;;;1.90;;
7495;SDS011;3789;47.064;15.482;2022-09-12T14:28:24;1.98;;;1.77;;
7495;SDS011;3789;47.064;15.482;2022-09-12T14:33:47;2.28;;;1.73;;
7495;SDS011;3789;47.064;15.482;2022-09-12T14:38:53;1.45;;;1.35;;
7495;SDS011;3789;47.064;15.482;2022-09-12T14:41:41;1.73;;;1.63;;
7495;SDS011;3789;47.064;15.482;2022-09-12T14:44:13;2.85;;;1.70;;
7495;SDS011;3789;47.064;15.482;2022-09-12T14:46:48;1.60;;;1.50;;
7495;SDS011;3789;47.064;15.482;2022-09-12T14:49:22;1.80;;;1.70;;
7495;SDS011;3789;47.064;15.482;2022-09-12T14:52:00;1.77;;;1.50;;
7495;SDS011;3789;47.064;15.482;2022-09-12T14:54:33;3.22;;;1.80;;
7495;SDS011;3789;47.064;15.482;2022-09-12T14:57:06;1.50;;;1.40;;
7495;SDS011;3789;47.064;15.482;2022-09-12T14:59:44;2.63;;;1.40;;
7495;SDS011;3789;47.064;15.482;2022-09-12T15:04:49;2.08;;;1.70;;
7495;SDS011;3789;47.064;15.482;2022-09-12T15:10:13;1.88;;;1.70;;
7495;SDS011;3789;47.064;15.482;2022-09-12T15:15:41;1.73;;;1.63;;
7495;SDS011;3789;47.064;15.482;2022-09-12T15:18:09;1.73;;;1.63;;
7495;SDS011;3789;47.064;15.482;2022-09-12T15:20:38;2.85;;;1.88;;
7495;SDS011;3789;47.064;15.482;2022-09-12T15:23:09;1.75;;;1.65;;
7495;SDS011;3789;47.064;15.482;2022-09-12T15:25:41;2.58;;;1.55;;
7495;SDS011;3789;47.064;15.482;2022-09-12T15:28:15;2.55;;;1.58;;
7495;SDS011;3789;47.064;15.482;2022-09-12T15:30:44;3.03;;;1.90;;
7495;SDS011;3789;47.064;15.482;2022-09-12T15:33:13;2.28;;;1.70;;
7495;SDS011;3789;47.064;15.482;2022-09-12T15:35:41;1.70;;;1.60;;
7495;SDS011;3789;47.064;15.482;2022-09-12T15:38:09;1.80;;;1.70;;
7495;SDS011;3789;47.064;15.482;2022-09-12T15:40:36;1.80;;;1.70;;
7495;SDS011;3789;47.064;15.482;2022-09-12T15:43:03;2.47;;;1.58;;
7495;SDS011;3789;47.064;15.482;2022-09-12T15:45:31;2.75;;;1.65;;
7495;SDS011;3789;47.064;15.482;2022-09-12T15:47:59;1.70;;;1.60;;
7495;SDS011;3789;47.064;15.482;2022-09-12T15:50:29;1.63;;;1.50;;
7495;SDS011;3789;47.064;15.482;2022-09-12T15:52:56;1.70;;;1.60;;
7495;SDS011;3789;47.064;15.482;2022-09-12T15:55:28;2.30;;;1.73;;
7495;SDS011;3789;47.064;15.482;2022-09-12T15:57:57;1.92;;;1.70;;
7495;SDS011;3789;47.064;15.482;2022-09-12T16:00:32;1.90;;;1.77;;
7495;SDS011;3789;47.064;15.482;2022-09-12T16:02:59;2.10;;;1.90;;
7495;SDS011;3789;47.064;15.482;2022-09-12T16:05:26;2.33;;;1.90;;
7495;SDS011;3789;47.064;15.482;2022-09-12T16:07:53;2.00;;;1.80;;
7495;SDS011;3789;47.064;15.482;2022-09-12T16:10:25;1.92;;;1.73;;
7495;SDS011;3789;47.064;15.482;2022-09-12T16:12:56;1.90;;;1.80;;
7495;SDS011;3789;47.064;15.482;2022-09-12T16:15:25;2.25;;;1.92;;
7495;SDS011;3789;47.064;15.482;2022-09-12T16:17:52;2.70;;;1.92;;
7495;SDS011;3789;47.064;15.482;2022-09-12T16:20:20;2.42;;;2.00;;
7495;SDS011;3789;47.064;15.482;2022-09-12T16:22:48;2.30;;;1.90;;
7495;SDS011;3789;47.064;15.482;2022-09-12T16:25:15;1.83;;;1.73;;
7495;SDS011;3789;47.064;15.482;2022-09-12T16:27:43;2.17;;;1.70;;
7495;SDS011;3789;47.064;15.482;2022-09-12T16:30:10;1.92;;;1.50;;
7495;SDS011;3789;47.064;15.482;2022-09-12T16:32:38;2.03;;;1.67;;
7495;SDS011;3789;47.064;15.482;2022-09-12T16:35:06;1.80;;;1.70;;
7495;SDS011;3789;47.064;15.482;2022-09-12T16:37:33;2.22;;;1.70;;
7495;SDS011;3789;47.064;15.482;2022-09-12T16:40:01;2.28;;;1.70;;
7495;SDS011;3789;47.064;15.482;2022-09-12T16:42:30;1.80;;;1.70;;
7495;SDS011;3789;47.064;15.482;2022-09-12T16:44:57;3.70;;;1.70;;
7495;SDS011;3789;47.064;15.482;2022-09-12T16:47:24;1.70;;;1.60;;
7495;SDS011;3789;47.064;15.482;2022-09-12T16:49:51;1.70;;;1.60;;
7495;SDS011;3789;47.064;15.482;2022-09-12T16:52:18;1.95;;;1.83;;
7495;SDS011;3789;47.064;15.482;2022-09-12T16:54:46;2.25;;;2.03;;
7495;SDS011;3789;47.064;15.482;2022-09-12T16:57:12;2.90;;;2.03;;
7495;SDS011;3789;47.064;15.482;2022-09-12T16:59:40;2.83;;;1.65;;
7495;SDS011;3789;47.064;15.482;2022-09-12T17:02:09;1.90;;;1.80;;
7495;SDS011;3789;47.064;15.482;2022-09-12T17:04:38;1.80;;;1.70;;
7495;SDS011;3789;47.064;15.482;2022-09-12T17:07:06;2.20;;;1.70;;
7495;SDS011;3789;47.064;15.482;2022-09-12T17:09:33;3.58;;;2.20;;
7495;SDS011;3789;47.064;15.482;2022-09-12T17:12:00;2.20;;;2.03;;
7495;SDS011;3789;47.064;15.482;2022-09-12T17:14:28;2.55;;;2.35;;
7495;SDS011;3789;47.064;15.482;2022-09-12T17:16:55;2.42;;;1.83;;
7495;SDS011;3789;47.064;15.482;2022-09-12T17:19:23;2.40;;;2.15;;
7495;SDS011;3789;47.064;15.482;2022-09-12T17:21:58;3.05;;;2.03;;
7495;SDS011;3789;47.064;15.482;2022-09-12T17:24:25;3.55;;;2.00;;
7495;SDS011;3789;47.064;15.482;2022-09-12T17:26:52;2.13;;;1.92;;
7495;SDS011;3789;47.064;15.482;2022-09-12T17:29:19;2.38;;;2.05;;
7495;SDS011;3789;47.064;15.482;2022-09-12T17:31:47;2.25;;;1.95;;
7495;SDS011;3789;47.064;15.482;2022-09-12T17:34:14;2.72;;;1.92;;
7495;SDS011;3789;47.064;15.482;2022-09-12T17:36:43;2.60;;;2.20;;
7495;SDS011;3789;47.064;15.482;2022-09-12T17:39:11;3.65;;;2.60;;
7495;SDS011;3789;47.064;15.482;2022-09-12T17:41:39;2.47;;;2.28;;
7495;SDS011;3789;47.064;15.482;2022-09-12T17:44:10;2.03;;;1.92;;
7495;SDS011;3789;47.064;15.482;2022-09-12T17:46:38;2.80;;;2.50;;
7495;SDS011;3789;47.064;15.482;2022-09-12T17:49:09;2.40;;;2.20;;
7495;SDS011;3789;47.064;15.482;2022-09-12T17:51:41;2.42;;;1.98;;
7495;SDS011;3789;47.064;15.482;2022-09-12T17:54:10;4.28;;;2.50;;
7495;SDS011;3789;47.064;15.482;2022-09-12T17:56:40;2.67;;;2.47;;
7495;SDS011;3789;47.064;15.482;2022-09-12T17:59:09;4.55;;;2.63;;
7495;SDS011;3789;47.064;15.482;2022-09-12T18:01:40;3.87;;;2.67;;
7495;SDS011;3789;47.064;15.482;2022-09-12T18:04:26;3.10;;;2.80;;
7495;SDS011;3789;47.064;15.482;2022-09-12T18:06:53;3.80;;;3.33;;
7495;SDS011;3789;47.064;15.482;2022-09-12T18:09:22;6.07;;;2.90;;